Time;durP1;ratioP1;P1;durP2;ratioP2;P2;SDS_P1;SDS_P2;PMS_P1;PMS_P2;Temp;Humidity;BMP_temperature;BMP_pressure;BME280_temperature;BME280_humidity;BME280_pressure;Samples;Min_cycle;Max_cycle;Signal;HPM_P1;HPM_P2
2021/01/06 00:01:05;;;;;;;25.48;16.55;;;;;;;2.18;75.33;100621.61;1808463;79;20955;-47
2021/01/06 00:03:33;;;;;;;23.10;14.58;;;;;;;2.18;75.44;100634.55;1808538;78;21069;-45
2021/01/06 00:06:07;;;;;;;21.75;15.03;;;;;;;2.18;75.42;100629.18;1808582;79;21622;-46
2021/01/06 00:08:35;;;;;;;23.07;13.62;;;;;;;2.18;75.44;100622.95;1807917;78;21620;-46
2021/01/06 00:11:02;;;;;;;20.05;12.85;;;;;;;2.18;75.46;100630.52;1808416;79;20931;-47
2021/01/06 00:13:30;;;;;;;26.75;17.07;;;;;;;2.15;75.44;100618.02;1808449;78;21014;-46
2021/01/06 00:15:58;;;;;;;24.70;16.75;;;;;;;2.07;75.72;100616.33;1808527;78;20907;-47
2021/01/06 00:18:26;;;;;;;23.50;13.85;;;;;;;2.06;75.82;100621.39;1808475;78;22713;-48
2021/01/06 00:20:55;;;;;;;24.27;14.83;;;;;;;2.05;75.87;100615.20;1808167;79;21172;-46
2021/01/06 00:23:23;;;;;;;20.92;13.85;;;;;;;2.00;75.95;100616.31;1807985;79;20951;-46
2021/01/06 00:25:53;;;;;;;23.87;15.78;;;;;;;2.04;76.12;100615.41;1807848;78;20935;-47
2021/01/06 00:28:22;;;;;;;23.27;15.68;;;;;;;2.13;75.99;100608.83;1807900;78;21470;-47
2021/01/06 00:30:53;;;;;;;25.70;16.97;;;;;;;2.17;75.77;100602.00;1807864;79;21350;-46
2021/01/06 00:33:29;;;;;;;23.52;14.53;;;;;;;2.18;75.79;100605.02;1807902;79;20954;-47
2021/01/06 00:36:04;;;;;;;22.60;14.90;;;;;;;2.22;75.64;100597.36;1808023;79;21541;-46
2021/01/06 00:38:32;;;;;;;20.85;13.78;;;;;;;2.21;75.37;100601.91;1808186;78;21066;-46
2021/01/06 00:41:00;;;;;;;24.47;14.65;;;;;;;2.15;75.45;100604.59;1807904;79;20927;-47
2021/01/06 00:43:28;;;;;;;28.00;16.62;;;;;;;2.12;75.54;100611.69;1807870;78;21352;-47
2021/01/06 00:45:56;;;;;;;20.72;14.50;;;;;;;2.15;75.69;100598.70;1807918;79;21132;-46
2021/01/06 00:48:23;;;;;;;22.48;14.70;;;;;;;2.24;75.48;100598.00;1807868;79;21044;-46
2021/01/06 00:50:52;;;;;;;27.60;17.15;;;;;;;2.26;75.33;100599.95;1807785;79;20939;-46
2021/01/06 00:53:26;;;;;;;29.95;17.70;;;;;;;2.25;75.24;100594.28;1807869;78;20928;-46
2021/01/06 00:55:56;;;;;;;27.50;16.65;;;;;;;2.28;75.30;100592.51;1807826;79;21389;-46
2021/01/06 00:58:25;;;;;;;24.80;16.32;;;;;;;2.35;75.09;100597.39;1807846;78;21034;-46
2021/01/06 01:00:54;;;;;;;23.87;15.45;;;;;;;2.34;75.00;100592.54;1807863;79;21030;-46
2021/01/06 01:03:24;;;;;;;25.12;16.80;;;;;;;2.37;75.00;100594.49;1807770;78;21042;-46
2021/01/06 01:05:53;;;;;;;27.52;17.40;;;;;;;2.39;75.02;100593.27;1807922;79;21073;-45
2021/01/06 01:08:20;;;;;;;27.35;17.67;;;;;;;2.44;74.96;100594.82;1807836;78;23612;-46
2021/01/06 01:10:51;;;;;;;23.50;15.05;;;;;;;2.47;74.86;100594.39;1807626;78;21010;-46
2021/01/06 01:13:22;;;;;;;27.87;17.12;;;;;;;2.47;74.78;100587.67;1807972;78;20944;-45
2021/01/06 01:15:56;;;;;;;25.68;16.30;;;;;;;2.45;74.81;100599.67;1807614;78;20927;-46
2021/01/06 01:18:28;;;;;;;24.40;15.75;;;;;;;2.47;74.80;100598.94;1807911;79;20970;-45
2021/01/06 01:20:57;;;;;;;30.40;18.48;;;;;;;2.49;74.83;100592.34;1807980;79;22047;-46
2021/01/06 01:23:27;;;;;;;25.10;16.87;;;;;;;2.51;74.73;100588.92;1807888;79;21565;-45
2021/01/06 01:25:59;;;;;;;26.27;17.52;;;;;;;2.53;74.76;100588.70;1807876;79;21577;-46
2021/01/06 01:28:27;;;;;;;27.27;17.17;;;;;;;2.52;74.57;100579.00;1807902;79;21548;-46
2021/01/06 01:30:56;;;;;;;27.20;17.30;;;;;;;2.46;74.62;100579.31;1807882;78;21553;-47
2021/01/06 01:33:25;;;;;;;21.82;14.55;;;;;;;2.48;74.68;100575.07;1807788;79;23603;-46
2021/01/06 01:35:55;;;;;;;29.25;18.35;;;;;;;2.54;74.65;100580.47;1807664;79;21050;-46
2021/01/06 01:38:25;;;;;;;24.12;15.48;;;;;;;2.58;74.54;100580.34;1807805;79;20936;-46
2021/01/06 01:41:08;;;;;;;26.35;18.67;;;;;;;2.66;74.46;100576.63;1807903;79;21434;-46
2021/01/06 01:43:37;;;;;;;32.20;19.15;;;;;;;2.68;74.31;100565.66;1807986;79;20999;-46
2021/01/06 01:46:11;;;;;;;27.87;17.82;;;;;;;2.73;74.29;100564.52;1807958;78;22276;-47
2021/01/06 01:48:49;;;;;;;29.27;18.48;;;;;;;2.79;74.04;100559.69;1800445;79;20943;-46
2021/01/06 01:51:39;;;;;;;27.82;16.35;;;;;;;2.84;73.70;100564.73;1807729;78;20991;-46
2021/01/06 01:54:12;;;;;;;25.85;16.93;;;;;;;2.82;73.66;100556.56;1742291;81;21156;-46
2021/01/06 01:57:07;;;;;;;30.43;17.48;;;;;;;2.82;73.39;100560.59;1791276;79;20939;-46
2021/01/06 01:59:59;;;;;;;28.13;18.43;;;;;;;2.72;73.46;100570.42;1808073;79;21271;-46
2021/01/06 02:02:52;;;;;;;27.95;17.87;;;;;;;2.68;73.69;100569.17;1807808;79;20959;-46
2021/01/06 02:05:25;;;;;;;31.68;19.52;;;;;;;2.67;73.62;100572.08;1802280;78;21473;-46
2021/01/06 02:08:01;;;;;;;28.75;18.12;;;;;;;2.64;73.68;100568.48;1778745;79;21050;-46
2021/01/06 02:10:33;;;;;;;25.43;16.75;;;;;;;2.61;73.76;100561.65;1809568;78;20998;-46
2021/01/06 02:13:26;;;;;;;33.18;20.27;;;;;;;2.67;73.74;100559.47;1813561;79;21362;-47
2021/01/06 02:16:24;;;;;;;31.35;19.35;;;;;;;2.68;73.70;100545.00;1813483;78;21053;-45
2021/01/06 02:18:52;;;;;;;31.20;18.50;;;;;;;2.78;73.49;100560.70;1813486;79;20927;-46
2021/01/06 02:21:21;;;;;;;36.75;20.80;;;;;;;2.77;73.34;100563.08;1813554;79;20887;-45
2021/01/06 02:23:50;;;;;;;35.88;20.90;;;;;;;2.71;73.39;100558.55;1813617;78;20986;-46
2021/01/06 02:26:19;;;;;;;33.60;21.20;;;;;;;2.69;73.45;100553.39;1813534;79;21360;-45
2021/01/06 02:28:47;;;;;;;31.87;17.17;;;;;;;2.70;73.35;100563.62;1813414;78;20983;-45
2021/01/06 02:31:16;;;;;;;27.50;16.32;;;;;;;2.65;73.34;100560.73;1813546;78;21553;-46
2021/01/06 02:33:43;;;;;;;27.02;17.57;;;;;;;2.61;73.49;100560.31;1813500;79;20912;-46
2021/01/06 02:36:11;;;;;;;36.17;20.92;;;;;;;2.63;73.61;100557.41;1786631;79;20935;-46
2021/01/06 02:38:39;;;;;;;33.33;20.97;;;;;;;2.64;73.56;100545.65;1813506;78;21353;-46
2021/01/06 02:41:07;;;;;;;35.48;22.35;;;;;;;2.64;73.62;100549.68;1761228;79;20935;-46
2021/01/06 02:43:35;;;;;;;34.33;20.37;;;;;;;2.68;73.54;100554.92;1813495;79;21106;-46
2021/01/06 02:46:03;;;;;;;33.08;19.95;;;;;;;2.66;73.42;100551.11;1813482;79;20930;-46
2021/01/06 02:48:31;;;;;;;38.63;20.65;;;;;;;2.63;73.32;100552.85;1813502;79;21004;-46
2021/01/06 02:51:03;;;;;;;33.18;19.45;;;;;;;2.58;73.33;100553.47;1813502;79;21486;-45
2021/01/06 02:53:42;;;;;;;34.48;20.65;;;;;;;2.58;73.51;100548.63;1786476;79;20947;-45
2021/01/06 02:56:09;;;;;;;36.25;20.62;;;;;;;2.63;73.57;100543.97;1813616;79;21473;-46
2021/01/06 02:58:37;;;;;;;34.27;20.57;;;;;;;2.68;73.54;100552.23;1813532;79;21002;-46
2021/01/06 03:01:10;;;;;;;36.05;20.97;;;;;;;2.72;73.29;100555.64;1813471;79;20982;-45
2021/01/06 03:03:39;;;;;;;33.42;20.75;;;;;;;2.71;73.26;100555.86;1813549;79;21200;-45
2021/01/06 03:06:21;;;;;;;32.65;17.82;;;;;;;2.72;73.14;100564.22;1813415;79;21543;-46
2021/01/06 03:08:48;;;;;;;34.20;19.87;;;;;;;2.71;72.99;100561.23;1813612;78;21561;-45
2021/01/06 03:11:17;;;;;;;37.90;20.00;;;;;;;2.62;73.02;100573.22;1810322;78;20975;-46
2021/01/06 03:13:45;;;;;;;34.75;21.10;;;;;;;2.56;73.23;100572.19;1807810;79;21555;-45
2021/01/06 03:16:13;;;;;;;36.95;22.58;;;;;;;2.52;73.45;100574.97;1807771;79;21193;-46
2021/01/06 03:18:41;;;;;;;37.33;21.02;;;;;;;2.48;73.59;100554.41;1807638;79;20952;-45
2021/01/06 03:21:08;;;;;;;32.70;19.87;;;;;;;2.59;73.52;100551.64;1778851;78;21018;-47
2021/01/06 03:23:43;;;;;;;37.28;21.33;;;;;;;2.57;73.39;100561.23;1778851;79;21043;-46
2021/01/06 03:26:15;;;;;;;35.10;20.72;;;;;;;2.53;73.47;100561.84;1808013;78;21046;-45
2021/01/06 03:28:43;;;;;;;34.13;20.85;;;;;;;2.51;73.51;100557.21;1779669;79;21360;-45
2021/01/06 03:31:16;;;;;;;32.60;18.07;;;;;;;2.52;73.61;100558.86;1807664;78;20947;-45
2021/01/06 03:34:00;;;;;;;33.20;20.12;;;;;;;2.57;73.51;100571.16;1807804;79;20943;-46
2021/01/06 03:36:31;;;;;;;35.15;21.42;;;;;;;2.52;73.50;100565.05;1773618;79;21125;-47
2021/01/06 03:39:07;;;;;;;38.23;21.27;;;;;;;2.54;73.53;100571.58;1807819;78;21485;-46
2021/01/06 03:41:34;;;;;;;;;;;;;;;2.54;73.60;100564.88;1810406;78;21303;-46
2021/01/06 03:44:06;;;;;;;40.73;19.50;;;;;;;2.54;73.58;100555.47;1807706;79;20150;-46
2021/01/06 03:46:53;;;;;;;36.95;20.80;;;;;;;2.52;73.60;100550.80;1779015;79;21496;-46
2021/01/06 03:50:16;;;;;;;33.27;20.60;;;;;;;2.49;73.62;100544.00;1889972;75;22823;-45
2021/01/06 03:53:07;;;;;;;34.00;20.05;;;;;;;2.42;73.87;100538.31;1875729;76;20973;-45
2021/01/06 03:55:58;;;;;;;31.77;17.77;;;;;;;2.44;73.94;100525.00;1881712;75;21254;-47
2021/01/06 03:58:49;;;;;;;35.15;19.92;;;;;;;2.49;74.06;100535.95;1806971;79;20949;-45
2021/01/06 04:01:49;;;;;;;35.38;19.60;;;;;;;2.45;74.12;100542.76;1822887;78;20954;-45
2021/01/06 04:04:36;;;;;;;36.58;19.95;;;;;;;2.46;74.19;100559.70;1799677;78;20906;-45
2021/01/06 04:07:05;;;;;;;33.38;20.02;;;;;;;2.36;74.34;100558.76;1807257;79;21525;-45
2021/01/06 04:09:47;;;;;;;32.73;20.32;;;;;;;2.28;74.50;100554.92;1822975;78;22258;-45
2021/01/06 04:12:17;;;;;;;40.45;21.27;;;;;;;2.29;74.71;100560.11;1792905;78;21088;-46
2021/01/06 04:14:45;;;;;;;37.33;21.05;;;;;;;2.38;74.79;100556.68;1807106;78;20934;-46
2021/01/06 04:17:21;;;;;;;32.40;19.15;;;;;;;2.44;74.68;100555.06;1822812;78;21088;-45
2021/01/06 04:19:50;;;;;;;;;;;;;;;2.45;74.55;100555.36;1809830;79;20941;-46
2021/01/06 04:22:25;;;;;;;34.55;19.12;;;;;;;2.43;74.54;100558.23;1778130;79;21198;-46
2021/01/06 04:24:53;;;;;;;27.65;16.00;;;;;;;2.39;74.60;100552.16;1807207;79;21012;-46
2021/01/06 04:27:20;;;;;;;37.08;19.42;;;;;;;2.38;74.66;100560.71;1806997;79;21577;-46
2021/01/06 04:29:48;;;;;;;31.93;18.85;;;;;;;2.40;74.70;100560.00;1822814;78;20922;-46
2021/01/06 04:32:17;;;;;;;30.60;17.50;;;;;;;2.37;74.69;100559.58;1822881;78;20939;-46
2021/01/06 04:34:44;;;;;;;34.58;18.67;;;;;;;2.32;74.91;100558.85;1807104;79;23607;-45
2021/01/06 04:37:12;;;;;;;31.10;18.80;;;;;;;2.29;74.94;100564.66;1822724;78;21588;-47
2021/01/06 04:39:39;;;;;;;36.30;19.48;;;;;;;2.22;75.16;100568.66;1807042;79;21285;-46
2021/01/06 04:42:08;;;;;;;34.08;19.57;;;;;;;2.23;75.17;100579.73;1822750;78;20921;-45
2021/01/06 04:45:02;;;;;;;35.40;19.27;;;;;;;2.23;75.26;100572.16;1807118;79;21453;-45
2021/01/06 04:47:42;;;;;;;33.63;18.55;;;;;;;2.27;75.33;100569.38;1806947;79;21431;-45
2021/01/06 04:50:54;;;;;;;31.62;18.77;;;;;;;2.32;75.32;100574.97;1800424;78;21071;-46
2021/01/06 04:54:04;;;;;;;36.93;21.02;;;;;;;2.33;75.22;100579.30;1822772;78;21059;-46
2021/01/06 04:56:43;;;;;;;37.60;19.50;;;;;;;2.28;75.23;100586.66;1806792;79;21013;-46
2021/01/06 04:59:38;;;;;;;34.03;18.37;;;;;;;2.30;75.26;100579.20;1804702;78;21111;-46
2021/01/06 05:02:20;;;;;;;34.60;19.17;;;;;;;2.33;75.34;100569.90;1790198;79;21385;-46
2021/01/06 05:05:15;;;;;;;39.20;19.52;;;;;;;2.39;75.32;100572.30;1792717;79;21001;-46
2021/01/06 05:08:03;;;;;;;35.73;19.52;;;;;;;2.44;75.23;100580.05;1783344;80;21562;-46
2021/01/06 05:10:43;;;;;;;40.73;19.17;;;;;;;2.47;75.09;100568.87;1774670;80;21041;-46
2021/01/06 05:13:36;;;;;;;36.30;19.45;;;;;;;2.48;75.15;100573.73;1789855;80;21001;-46
2021/01/06 05:16:18;;;;;;;34.70;18.20;;;;;;;2.48;75.13;100579.09;1774751;80;22382;-46
2021/01/06 05:18:45;;;;;;;33.05;16.25;;;;;;;2.48;75.11;100575.89;1788281;80;20984;-45
2021/01/06 05:21:21;;;;;;;32.80;17.52;;;;;;;2.53;75.04;100592.73;1774653;80;21013;-45
2021/01/06 05:23:54;;;;;;;32.50;19.67;;;;;;;2.50;74.87;100585.94;1792600;78;21147;-45
2021/01/06 05:26:21;;;;;;;30.30;17.23;;;;;;;2.43;75.12;100595.00;1821209;78;21217;-46
2021/01/06 05:28:49;;;;;;;31.40;17.48;;;;;;;2.42;75.09;100588.81;1806240;79;21510;-46
2021/01/06 05:31:18;;;;;;;34.53;18.02;;;;;;;2.42;75.27;100586.64;1822100;78;20961;-46
2021/01/06 05:33:50;;;;;;;31.35;17.12;;;;;;;2.43;75.32;100585.09;1806418;79;20922;-46
2021/01/06 05:36:25;;;;;;;24.75;15.23;;;;;;;2.48;75.40;100586.64;1822158;78;21491;-46
2021/01/06 05:38:54;;;;;;;25.62;12.68;;;;;;;2.49;75.34;100589.66;1806623;79;20969;-47
2021/01/06 05:41:21;;;;;;;32.38;17.77;;;;;;;2.50;75.44;100591.83;1792814;78;21206;-46
2021/01/06 05:43:51;;;;;;;29.45;16.15;;;;;;;2.50;75.52;100592.65;1806425;79;21042;-46
2021/01/06 05:46:26;;;;;;;37.93;17.75;;;;;;;2.49;75.48;100591.00;1792791;78;21012;-47
2021/01/06 05:49:01;;;;;;;29.72;16.95;;;;;;;2.49;75.55;100592.86;1807609;78;21013;-48
2021/01/06 05:51:37;;;;;;;34.50;18.40;;;;;;;2.50;75.57;100592.65;1822402;78;21536;-47
2021/01/06 05:54:37;;;;;;;42.40;19.42;;;;;;;2.51;75.58;100594.30;1809561;79;21429;-47
2021/01/06 05:57:35;;;;;;;28.15;14.73;;;;;;;2.54;75.60;100591.20;1811635;78;21503;-49
2021/01/06 06:00:29;;;;;;;40.20;19.42;;;;;;;2.52;75.73;100597.80;1809478;79;21012;-47
2021/01/06 06:03:38;;;;;;;34.08;17.48;;;;;;;2.44;76.03;100598.84;1822143;78;20941;-49
2021/01/06 06:06:56;;;;;;;39.25;20.48;;;;;;;2.47;76.20;100599.77;1809544;79;21040;-48
2021/01/06 06:10:02;;;;;;;34.80;18.85;;;;;;;2.48;76.21;100598.72;1822102;78;21526;-47
2021/01/06 06:12:44;;;;;;;34.73;18.87;;;;;;;2.55;76.17;100604.95;1822000;78;21190;-48
2021/01/06 06:15:39;;;;;;;40.48;19.20;;;;;;;2.65;76.12;100605.05;1809501;79;21004;-46
2021/01/06 06:18:20;;;;;;;31.05;17.07;;;;;;;2.73;75.93;100604.83;1822070;78;20976;-46
2021/01/06 06:20:59;;;;;;;27.20;14.80;;;;;;;2.79;75.94;100613.42;1809523;79;20926;-47
2021/01/06 06:24:01;;;;;;;37.35;19.00;;;;;;;2.77;75.76;100610.92;1822186;78;21570;-48
2021/01/06 06:26:57;;;;;;;36.98;18.27;;;;;;;2.75;75.88;100615.69;1809423;79;20933;-47
2021/01/06 06:29:36;;;;;;;27.60;13.90;;;;;;;2.78;75.87;100618.47;1822187;78;21439;-48
2021/01/06 06:32:04;;;;;;;37.48;18.55;;;;;;;2.81;75.85;100608.66;1822118;78;21543;-47
2021/01/06 06:34:35;;;;;;;30.72;17.82;;;;;;;2.82;75.68;100608.96;1809465;79;21028;-48
2021/01/06 06:37:16;;;;;;;34.65;17.80;;;;;;;2.78;75.72;100607.72;1822159;78;21508;-47
2021/01/06 06:39:49;;;;;;;32.55;17.90;;;;;;;2.80;75.71;100616.42;1821738;78;21016;-47
2021/01/06 06:42:30;;;;;;;36.95;18.17;;;;;;;2.80;75.84;100625.82;1819032;78;20886;-48
2021/01/06 06:45:02;;;;;;;36.40;19.77;;;;;;;2.87;75.86;100618.57;1822035;78;20925;-47
2021/01/06 06:47:51;;;;;;;34.58;19.02;;;;;;;2.92;75.77;100630.05;1809577;79;21591;-46
2021/01/06 06:50:53;;;;;;;27.35;14.13;;;;;;;2.90;75.60;100624.88;1808223;79;21384;-47
2021/01/06 06:53:29;;;;;;;29.20;15.68;;;;;;;2.85;75.66;100621.47;1747093;79;20981;-48
2021/01/06 06:56:04;;;;;;;25.35;14.75;;;;;;;2.79;75.83;100625.52;1806412;79;21452;-46
2021/01/06 06:58:58;;;;;;;34.83;19.42;;;;;;;2.79;75.90;100628.20;1821993;78;21557;-46
2021/01/06 07:01:37;;;;;;;35.70;18.27;;;;;;;2.76;76.08;100620.03;1806489;78;20913;-48
2021/01/06 07:04:09;;;;;;;30.60;17.75;;;;;;;2.88;76.15;100626.11;1821802;78;21206;-47
2021/01/06 07:06:37;;;;;;;29.23;16.85;;;;;;;2.96;75.84;100623.22;1820749;78;21114;-47
2021/01/06 07:09:04;;;;;;;29.48;17.42;;;;;;;2.98;75.65;100625.17;1805224;79;21183;-47
2021/01/06 07:11:48;;;;;;;34.48;17.57;;;;;;;3.00;75.63;100629.84;1791901;78;21128;-47
2021/01/06 07:14:37;;;;;;;32.28;18.27;;;;;;;3.00;75.59;100632.53;1821545;78;21131;-48
2021/01/06 07:17:12;;;;;;;29.90;17.07;;;;;;;2.93;75.65;100627.14;1805775;79;21364;-47
2021/01/06 07:19:52;;;;;;;28.57;17.15;;;;;;;2.98;75.70;100623.83;1821426;78;21681;-47
2021/01/06 07:22:40;;;;;;;32.88;16.73;;;;;;;3.00;75.67;100626.63;1803269;78;21610;-47
2021/01/06 07:25:25;;;;;;;32.35;17.52;;;;;;;3.02;75.55;100621.04;1806563;79;21493;-46
2021/01/06 07:27:56;;;;;;;;;;;;;;;3.00;75.65;100625.81;1824845;78;21119;-47
2021/01/06 07:30:34;;;;;;;29.72;16.12;;;;;;;2.99;75.65;100616.06;1822040;78;21215;-48
2021/01/06 07:33:38;;;;;;;31.62;17.17;;;;;;;2.98;75.66;100623.83;1806278;79;21523;-47
2021/01/06 07:36:22;;;;;;;30.50;17.30;;;;;;;2.95;75.69;100621.58;1822083;78;20941;-47
2021/01/06 07:38:51;;;;;;;28.87;17.62;;;;;;;2.92;75.74;100620.11;1821647;78;21114;-48
2021/01/06 07:41:20;;;;;;;34.73;18.80;;;;;;;2.92;75.90;100621.46;1806394;78;20902;-48
2021/01/06 07:44:24;;;;;;;28.80;16.60;;;;;;;2.98;75.90;100619.28;1822270;78;22130;-47
2021/01/06 07:47:06;;;;;;;32.78;17.75;;;;;;;3.02;75.70;100633.96;1821998;78;21008;-51
2021/01/06 07:49:59;;;;;;;34.08;17.77;;;;;;;3.06;75.69;100624.45;1821423;78;21001;-45
2021/01/06 07:52:51;;;;;;;36.23;18.17;;;;;;;3.10;75.70;100628.38;1805979;79;21191;-48
2021/01/06 07:55:36;;;;;;;34.95;18.23;;;;;;;3.11;75.54;100634.58;1821900;78;21100;-48
2021/01/06 07:58:17;;;;;;;32.83;17.35;;;;;;;3.11;75.60;100639.44;1806353;78;21422;-48
2021/01/06 08:01:18;;;;;;;34.00;18.40;;;;;;;3.18;75.43;100632.69;1821658;78;20970;-49
2021/01/06 08:03:56;;;;;;;35.10;18.87;;;;;;;3.20;75.42;100637.88;1806104;79;21503;-49
2021/01/06 08:06:52;;;;;;;31.05;17.12;;;;;;;3.22;75.40;100640.66;1792765;78;21238;-46
2021/01/06 08:09:32;;;;;;;33.70;16.62;;;;;;;3.22;75.29;100641.17;1806023;78;21272;-48
2021/01/06 08:12:28;;;;;;;32.35;16.77;;;;;;;3.18;75.40;100639.94;1792498;78;21372;-53
2021/01/06 08:15:11;;;;;;;32.55;18.35;;;;;;;3.21;75.43;100643.05;1774612;80;21635;-49
2021/01/06 08:17:45;;;;;;;34.25;18.20;;;;;;;3.21;75.39;100645.73;1795676;80;20923;-49
2021/01/06 08:20:37;;;;;;;36.65;17.48;;;;;;;3.28;75.40;100647.88;1782761;80;21178;-48
2021/01/06 08:23:28;;;;;;;34.25;18.15;;;;;;;3.36;75.30;100647.66;1780593;80;21136;-48
2021/01/06 08:26:04;;;;;;;33.18;18.02;;;;;;;3.45;75.23;100655.48;1755596;80;22401;-48
2021/01/06 08:28:32;;;;;;;38.50;17.90;;;;;;;3.49;75.00;100652.69;1780898;80;21152;-51
2021/01/06 08:31:17;;;;;;;34.27;17.52;;;;;;;3.49;74.87;100654.86;1783642;80;21200;-48
2021/01/06 08:33:55;;;;;;;34.25;18.20;;;;;;;3.47;74.83;100655.60;1783847;80;21678;-49
2021/01/06 08:36:30;;;;;;;33.18;18.32;;;;;;;3.46;74.68;100659.33;1783859;79;21125;-50
2021/01/06 08:39:16;;;;;;;33.33;17.75;;;;;;;3.47;74.77;100654.26;1778602;80;21390;-49
2021/01/06 08:41:46;;;;;;;;;;;;;;;3.55;74.73;100654.56;1786356;79;21128;-49
2021/01/06 08:44:35;;;;;;;36.68;19.45;;;;;;;3.57;74.67;100655.98;1806247;79;20227;-50
2021/01/06 08:47:06;;;;;;;37.30;18.90;;;;;;;3.61;74.60;100649.15;1787169;80;21155;-50
2021/01/06 08:49:36;;;;;;;36.13;18.42;;;;;;;3.68;74.55;100652.33;1791777;79;21148;-48
2021/01/06 08:52:18;;;;;;;35.23;18.12;;;;;;;3.73;74.51;100649.83;1815200;79;21372;-50
2021/01/06 08:55:03;;;;;;;32.53;16.93;;;;;;;3.80;74.29;100650.62;1815391;79;21125;-52
2021/01/06 08:57:35;;;;;;;32.00;17.42;;;;;;;3.82;74.08;100645.87;1815160;79;21200;-48
2021/01/06 09:00:29;;;;;;;36.45;18.45;;;;;;;3.85;73.86;100653.50;1815230;79;21058;-48
2021/01/06 09:03:09;;;;;;;34.20;17.50;;;;;;;3.83;73.83;100647.52;1815368;79;21097;-50
2021/01/06 09:06:11;;;;;;;36.03;19.15;;;;;;;3.84;73.82;100656.71;1815341;79;21205;-51
2021/01/06 09:08:44;;;;;;;32.33;18.02;;;;;;;3.86;73.75;100651.14;1815309;79;21154;-49
2021/01/06 09:11:31;;;;;;;35.05;17.98;;;;;;;3.90;73.78;100655.88;1814172;79;21616;-48
2021/01/06 09:14:37;;;;;;;34.25;18.10;;;;;;;3.93;73.62;100651.09;1815387;79;21137;-48
2021/01/06 09:20:23;;;;;;;33.03;18.23;;;;;;;4.06;73.34;100660.47;1815811;79;22391;-56
2021/01/06 09:22:51;;;;;;;28.92;17.62;;;;;;;4.05;73.27;100658.80;1758690;80;21130;-53
2021/01/06 09:25:24;;;;;;;33.67;17.17;;;;;;;4.05;73.19;100650.72;1788898;80;21793;-51
2021/01/06 09:27:52;;;;;;;34.10;18.37;;;;;;;4.07;73.20;100652.17;1788912;80;21084;-51
2021/01/06 09:30:25;;;;;;;34.60;18.65;;;;;;;4.12;73.11;100649.66;1788922;80;20945;-48
2021/01/06 09:32:54;;;;;;;30.85;17.30;;;;;;;4.15;73.03;100645.17;1789112;78;21515;-53
2021/01/06 09:35:29;;;;;;;34.20;17.15;;;;;;;4.18;73.04;100648.48;1754223;81;21060;-52
2021/01/06 09:38:10;;;;;;;30.27;17.45;;;;;;;4.16;72.82;100652.23;1724110;82;21429;-50
2021/01/06 09:40:37;;;;;;;33.42;17.77;;;;;;;4.08;72.84;100650.30;1723850;83;21632;-48
2021/01/06 09:43:10;;;;;;;32.25;17.25;;;;;;;4.10;73.10;100637.44;1724115;83;20966;-47
2021/01/06 09:45:38;;;;;;;36.00;18.32;;;;;;;4.12;72.95;100637.54;1720579;83;21212;-50
2021/01/06 09:48:09;;;;;;;32.05;17.20;;;;;;;4.14;73.01;100642.17;1724225;83;21224;-49
2021/01/06 09:50:40;;;;;;;30.48;17.50;;;;;;;4.17;73.14;100638.24;1695752;83;22299;-47
2021/01/06 09:53:10;;;;;;;28.38;15.90;;;;;;;4.22;73.11;100641.11;1699884;83;20991;-51
2021/01/06 09:55:45;;;;;;;29.70;17.17;;;;;;;4.24;72.90;100632.28;1695171;84;20958;-51
2021/01/06 09:58:36;;;;;;;23.20;12.37;;;;;;;4.31;72.74;100638.47;1694988;84;21172;-52
2021/01/06 10:01:19;;;;;;;33.18;17.48;;;;;;;4.34;72.60;100634.50;1695216;84;21054;-48
2021/01/06 10:03:49;;;;;;;31.93;18.27;;;;;;;4.38;72.42;100626.30;1695185;84;21339;-48
2021/01/06 10:06:45;;;;;;;34.53;18.80;;;;;;;4.40;72.44;100630.94;1695075;84;21180;-50
2021/01/06 10:09:33;;;;;;;31.68;16.62;;;;;;;4.44;72.35;100628.12;1695253;84;21038;-49
2021/01/06 10:12:38;;;;;;;33.90;16.70;;;;;;;4.48;72.30;100637.95;1695126;84;21196;-49
2021/01/06 10:15:27;;;;;;;34.08;17.65;;;;;;;4.46;72.12;100632.78;1695089;84;21230;-49
2021/01/06 10:18:13;;;;;;;37.88;17.70;;;;;;;4.45;72.13;100632.98;1671931;84;22267;-48
2021/01/06 10:21:00;;;;;;;31.55;16.52;;;;;;;4.50;72.10;100639.89;1695299;84;21070;-46
2021/01/06 10:23:39;;;;;;;32.58;17.87;;;;;;;4.50;72.05;100638.02;1695157;84;20991;-50
2021/01/06 10:26:29;;;;;;;30.43;17.23;;;;;;;4.52;72.18;100638.64;1695166;84;21037;-52
2021/01/06 10:28:57;;;;;;;32.00;16.48;;;;;;;4.58;72.09;100638.29;1695241;84;20939;-50
2021/01/06 10:31:26;;;;;;;30.92;16.52;;;;;;;4.59;71.99;100646.67;1667535;84;21216;-50
2021/01/06 10:34:05;;;;;;;24.72;14.50;;;;;;;4.58;71.79;100656.63;1694668;84;21168;-49
2021/01/06 10:36:56;;;;;;;34.13;16.70;;;;;;;4.52;71.71;100661.55;1693292;84;21698;-52
2021/01/06 10:39:32;;;;;;;28.70;16.52;;;;;;;4.48;71.87;100652.24;1692608;84;21698;-50
2021/01/06 10:42:02;;;;;;;26.00;15.08;;;;;;;4.52;71.90;100653.47;1694095;84;21570;-48
2021/01/06 10:44:34;;;;;;;31.75;15.90;;;;;;;4.56;71.73;100653.34;1694159;84;21150;-47
2021/01/06 10:47:34;;;;;;;29.98;16.50;;;;;;;4.56;71.90;100650.64;1693974;84;21168;-48
2021/01/06 10:50:07;;;;;;;32.08;17.15;;;;;;;4.60;71.68;100654.53;1693764;84;21185;-50
2021/01/06 10:53:29;;;;;;;31.20;16.25;;;;;;;4.61;71.72;100659.39;1694622;83;21627;-47
2021/01/06 10:56:16;;;;;;;35.65;17.05;;;;;;;4.64;71.63;100655.75;1694536;84;21077;-47
2021/01/06 10:58:58;;;;;;;32.40;16.37;;;;;;;4.67;71.52;100653.98;1694613;84;23634;-47
2021/01/06 11:01:43;;;;;;;30.57;16.60;;;;;;;4.67;71.57;100664.76;1694583;84;21054;-48
2021/01/06 11:04:46;;;;;;;29.65;16.35;;;;;;;4.67;71.49;100668.80;1694870;84;21667;-48
2021/01/06 11:07:48;;;;;;;32.83;16.32;;;;;;;4.71;71.53;100664.30;1694435;84;21649;-47
2021/01/06 11:10:50;;;;;;;32.13;16.55;;;;;;;4.74;71.56;100662.53;1711352;83;21219;-49
2021/01/06 11:13:43;;;;;;;37.98;16.45;;;;;;;4.79;71.43;100660.00;1726477;82;21156;-48
2021/01/06 11:16:16;;;;;;;32.53;16.85;;;;;;;4.77;71.20;100658.06;1726343;83;21087;-46
2021/01/06 11:18:50;;;;;;;33.58;15.83;;;;;;;4.76;71.28;100647.77;1699443;83;20988;-47
2021/01/06 11:21:39;;;;;;;33.05;17.42;;;;;;;4.77;71.22;100647.28;1713533;82;21043;-49
2021/01/06 11:24:51;;;;;;;32.60;16.75;;;;;;;4.76;71.29;100651.81;1713517;83;21079;-48
2021/01/06 11:27:40;;;;;;;33.42;18.05;;;;;;;4.78;71.26;100657.01;1713503;83;21731;-48
2021/01/06 11:30:30;;;;;;;36.88;16.67;;;;;;;4.78;71.19;100662.40;1713523;83;21110;-46
2021/01/06 11:33:19;;;;;;;33.53;19.30;;;;;;;4.80;71.23;100652.21;1713554;82;20933;-47
2021/01/06 11:35:58;;;;;;;31.93;18.57;;;;;;;4.82;71.20;100642.88;1711558;83;21150;-50
2021/01/06 11:38:43;;;;;;;32.78;18.40;;;;;;;4.85;71.20;100637.55;1685461;83;21135;-46
2021/01/06 11:41:17;;;;;;;32.53;18.17;;;;;;;4.89;71.30;100630.67;1713786;83;22603;-46
2021/01/06 11:44:10;;;;;;;31.48;17.10;;;;;;;4.91;71.16;100629.39;1713536;83;21080;-49
2021/01/06 11:47:01;;;;;;;33.42;16.25;;;;;;;4.94;71.19;100637.58;1693102;83;21233;-46
2021/01/06 11:49:47;;;;;;;34.20;16.75;;;;;;;4.94;71.17;100640.28;1689780;82;21171;-48
2021/01/06 11:52:29;;;;;;;28.60;15.68;;;;;;;4.94;71.04;100633.01;1713631;83;21119;-48
2021/01/06 11:55:15;;;;;;;32.58;16.85;;;;;;;4.99;70.95;100639.62;1713550;83;21457;-49
2021/01/06 11:58:21;;;;;;;28.12;16.20;;;;;;;4.99;70.91;100638.27;1710237;83;20991;-54
2021/01/06 12:01:09;;;;;;;31.90;15.98;;;;;;;4.99;70.85;100643.66;1692756;84;21231;-50
2021/01/06 12:04:24;;;;;;;35.13;16.37;;;;;;;4.98;70.78;100646.06;1698221;83;21086;-50
2021/01/06 12:07:32;;;;;;;27.67;15.03;;;;;;;4.90;70.84;100641.23;1743939;82;21131;-49
2021/01/06 12:10:12;;;;;;;30.08;16.02;;;;;;;4.87;70.88;100637.64;1740210;82;21383;-49
2021/01/06 12:12:50;;;;;;;28.87;15.63;;;;;;;4.85;70.93;100641.59;1742812;81;21191;-50
2021/01/06 12:15:47;;;;;;;29.37;14.70;;;;;;;4.84;71.04;100643.99;1743956;82;21088;-53
2021/01/06 12:18:35;;;;;;;30.12;15.80;;;;;;;4.89;70.96;100653.07;1743961;82;20945;-53